Time;durP1;ratioP1;P1;durP2;ratioP2;P2;SDS_P1;SDS_P2;PMS_P1;PMS_P2;Temp;Humidity;BMP_temperature;BMP_pressure;BME280_temperature;BME280_humidity;BME280_pressure;Samples;Min_cycle;Max_cycle;Signal;HPM_P1;HPM_P2
2021/10/05 00:01:13;;;;;;;2.72;1.95;;;14.80;99.90;;;;;;5037439;28;20083;-77
2021/10/05 00:03:39;;;;;;;0.60;0.60;;;14.80;99.90;;;;;;5038191;28;20451;-77
2021/10/05 00:06:04;;;;;;;0.17;0.17;;;14.80;99.90;;;;;;5039612;28;20021;-77
2021/10/05 00:08:30;;;;;;;0.45;0.45;;;14.80;99.90;;;;;;5041053;28;20048;-77
2021/10/05 00:10:55;;;;;;;0.03;0.03;;;14.80;99.90;;;;;;5034191;28;20029;-77
2021/10/05 00:13:22;;;;;;;1.23;1.15;;;14.80;99.90;;;;;;5035876;28;20029;-76
2021/10/05 00:15:48;;;;;;;2.25;0.50;;;14.80;99.90;;;;;;5035082;28;20025;-77
2021/10/05 00:18:14;;;;;;;0.65;0.65;;;14.80;99.90;;;;;;5032045;28;20163;-77
2021/10/05 00:20:39;;;;;;;6.30;0.52;;;14.80;99.90;;;;;;5037506;28;20555;-77
2021/10/05 00:23:05;;;;;;;0.25;0.25;;;14.80;99.90;;;;;;5034480;28;20021;-77
2021/10/05 00:25:30;;;;;;;0.60;0.60;;;14.80;99.90;;;;;;5025300;28;20021;-76
2021/10/05 00:27:56;;;;;;;2.25;1.33;;;14.80;99.90;;;;;;5030035;28;20146;-77
2021/10/05 00:30:21;;;;;;;0.20;0.20;;;14.80;99.90;;;;;;5032853;28;20571;-77
2021/10/05 00:32:47;;;;;;;0.80;0.80;;;14.80;99.90;;;;;;5030589;28;20022;-77
2021/10/05 00:35:12;;;;;;;0.80;0.47;;;14.80;99.90;;;;;;5027020;28;20029;-77
2021/10/05 00:37:38;;;;;;;0.38;0.38;;;14.70;99.90;;;;;;5035615;28;20072;-77
2021/10/05 00:40:05;;;;;;;1.05;0.98;;;14.70;99.90;;;;;;5030072;28;20112;-77
2021/10/05 00:42:31;;;;;;;1.70;0.63;;;14.70;99.90;;;;;;5024699;28;20024;-77
2021/10/05 00:44:56;;;;;;;1.15;0.93;;;14.70;99.90;;;;;;5030921;28;20332;-77
2021/10/05 00:47:22;;;;;;;0.60;0.60;;;14.70;99.90;;;;;;5037125;28;20026;-77
2021/10/05 00:49:49;;;;;;;2.08;1.50;;;14.70;99.90;;;;;;5030847;28;20049;-77
2021/10/05 00:52:16;;;;;;;0.10;0.10;;;14.70;99.90;;;;;;5028635;28;20511;-77
2021/10/05 00:54:42;;;;;;;0.50;0.50;;;14.70;99.90;;;;;;5018753;28;20103;-77
2021/10/05 00:57:09;;;;;;;1.23;0.52;;;14.70;99.90;;;;;;5024745;28;20642;-76
2021/10/05 00:59:36;;;;;;;0.93;0.85;;;14.70;99.90;;;;;;5021528;28;20036;-77
2021/10/05 01:02:06;;;;;;;3.83;1.45;;;14.70;99.90;;;;;;5036396;28;20072;-77
2021/10/05 01:04:31;;;;;;;1.00;1.00;;;14.70;99.90;;;;;;5028119;28;20037;-77
2021/10/05 01:07:00;;;;;;;1.95;1.10;;;14.70;99.90;;;;;;5034154;28;20044;-77
2021/10/05 01:09:26;;;;;;;1.75;0.70;;;14.80;99.90;;;;;;5032017;28;20112;-77
2021/10/05 01:11:53;;;;;;;1.17;0.95;;;14.70;99.90;;;;;;5027124;28;20029;-77
2021/10/05 01:14:18;;;;;;;0.90;0.30;;;14.80;99.90;;;;;;5026059;28;20030;-77
2021/10/05 01:16:44;;;;;;;0.80;0.47;;;14.80;99.90;;;;;;5034052;28;20558;-77
2021/10/05 01:19:09;;;;;;;0.65;0.57;;;14.80;99.90;;;;;;5023300;28;20052;-77
2021/10/05 01:21:35;;;;;;;0.95;0.57;;;14.70;99.90;;;;;;5031699;28;20030;-77
2021/10/05 01:24:06;;;;;;;0.10;0.10;;;14.70;99.90;;;;;;5026295;28;20013;-77
2021/10/05 01:26:31;;;;;;;0.30;0.30;;;14.70;99.90;;;;;;5041627;28;20033;-77
2021/10/05 01:28:57;;;;;;;1.77;1.20;;;14.70;99.90;;;;;;5034626;28;20510;-77
2021/10/05 01:31:22;;;;;;;0.98;0.65;;;14.70;99.90;;;;;;5034973;28;20123;-76
2021/10/05 01:33:47;;;;;;;0.73;0.73;;;14.70;99.90;;;;;;5045014;28;20033;-77
2021/10/05 01:36:13;;;;;;;0.20;0.20;;;14.70;99.90;;;;;;5042868;28;20047;-76
2021/10/05 01:38:38;;;;;;;0.43;0.43;;;14.70;99.90;;;;;;5039665;28;20025;-76
2021/10/05 01:41:04;;;;;;;0.17;0.17;;;14.70;99.90;;;;;;5035395;28;20037;-76
2021/10/05 01:43:29;;;;;;;0.50;0.50;;;14.70;99.90;;;;;;5034611;28;20381;-77
2021/10/05 01:45:55;;;;;;;1.38;0.80;;;14.70;99.90;;;;;;5038945;28;20033;-76
2021/10/05 01:48:20;;;;;;;2.53;1.65;;;14.70;99.90;;;;;;5034964;28;20032;-77
2021/10/05 01:50:46;;;;;;;0.73;0.40;;;14.80;99.90;;;;;;5034919;28;20436;-77
2021/10/05 01:53:11;;;;;;;1.48;0.70;;;14.70;99.90;;;;;;5030761;28;20574;-77
2021/10/05 01:55:37;;;;;;;1.42;0.50;;;14.70;99.90;;;;;;5028979;28;20025;-77
2021/10/05 01:58:02;;;;;;;0.28;0.28;;;14.70;99.90;;;;;;5035856;28;20479;-77
2021/10/05 02:00:28;;;;;;;1.35;0.90;;;14.70;99.90;;;;;;5036249;28;20061;-76
2021/10/05 02:02:54;;;;;;;0.30;0.30;;;14.70;99.90;;;;;;5027346;28;20187;-77
2021/10/05 02:05:20;;;;;;;1.80;1.45;;;14.70;99.90;;;;;;5027779;28;20029;-77
2021/10/05 02:07:45;;;;;;;1.55;1.00;;;14.70;99.90;;;;;;5035683;28;20026;-77
2021/10/05 02:10:12;;;;;;;1.40;1.15;;;14.70;99.90;;;;;;5030062;28;20524;-77
2021/10/05 02:12:37;;;;;;;2.45;1.15;;;14.70;99.90;;;;;;5034086;28;20041;-77
2021/10/05 02:15:04;;;;;;;1.75;0.75;;;14.70;99.90;;;;;;5033421;28;20052;-77
2021/10/05 02:17:30;;;;;;;3.60;0.52;;;14.70;99.90;;;;;;5038820;28;20021;-77
2021/10/05 02:19:55;;;;;;;0.80;0.80;;;14.70;99.90;;;;;;5041636;28;20052;-77
2021/10/05 02:22:21;;;;;;;0.73;0.52;;;14.70;99.90;;;;;;5034137;28;20040;-77
2021/10/05 02:24:47;;;;;;;0.43;0.43;;;14.70;99.90;;;;;;5035558;28;20021;-76
2021/10/05 02:27:16;;;;;;;1.65;0.60;;;14.60;99.90;;;;;;5024892;28;20017;-77
2021/10/05 02:29:42;;;;;;;0.30;0.30;;;14.60;99.90;;;;;;5030292;28;20033;-76
2021/10/05 02:32:09;;;;;;;0.55;0.55;;;14.70;99.90;;;;;;5027847;28;20026;-76
2021/10/05 02:34:36;;;;;;;1.52;1.42;;;14.60;99.90;;;;;;5045664;28;20138;-77
2021/10/05 02:37:03;;;;;;;2.28;0.85;;;14.60;99.90;;;;;;5035148;28;20082;-77
2021/10/05 02:39:28;;;;;;;3.53;0.43;;;14.60;99.90;;;;;;5041974;28;20086;-77
2021/10/05 02:41:54;;;;;;;0.15;0.15;;;14.60;99.90;;;;;;5030115;28;20442;-77
2021/10/05 02:44:19;;;;;;;1.02;0.73;;;14.60;99.90;;;;;;5044536;28;20021;-77
2021/10/05 02:46:46;;;;;;;0.15;0.15;;;14.60;99.90;;;;;;5028382;28;20036;-77
2021/10/05 02:49:12;;;;;;;0.30;0.30;;;14.70;99.90;;;;;;5028348;28;20033;-77
2021/10/05 02:51:38;;;;;;;0.45;0.43;;;14.60;99.90;;;;;;5041916;28;20443;-77
2021/10/05 02:54:03;;;;;;;0.40;0.40;;;14.60;99.90;;;;;;5025914;28;20565;-77
2021/10/05 02:56:29;;;;;;;0.95;0.65;;;14.60;99.90;;;;;;5032176;28;20035;-77
2021/10/05 02:58:54;;;;;;;0.50;0.15;;;14.60;99.90;;;;;;5033412;28;20468;-76
2021/10/05 03:01:20;;;;;;;0.40;0.40;;;14.60;99.90;;;;;;5033275;28;20087;-77
2021/10/05 03:03:46;;;;;;;0.28;0.22;;;14.70;99.90;;;;;;5031356;28;20025;-76
2021/10/05 03:06:11;;;;;;;0.45;0.25;;;14.60;99.90;;;;;;5030919;28;20080;-76
2021/10/05 03:08:40;;;;;;;0.28;0.28;;;14.60;99.90;;;;;;5033163;28;20060;-76
2021/10/05 03:11:06;;;;;;;0.15;0.15;;;14.60;99.90;;;;;;5044025;28;20041;-77
2021/10/05 03:13:35;;;;;;;0.10;0.10;;;14.60;99.90;;;;;;5034387;28;20040;-77
2021/10/05 03:16:03;;;;;;;0.38;0.28;;;14.60;99.90;;;;;;5029273;28;20041;-77
2021/10/05 03:18:28;;;;;;;0.63;0.38;;;14.60;99.90;;;;;;5036205;28;20024;-77
2021/10/05 03:20:54;;;;;;;1.95;0.73;;;14.60;99.90;;;;;;5027715;28;20399;-77
2021/10/05 03:23:19;;;;;;;2.38;1.60;;;14.60;99.90;;;;;;5033959;28;20497;-76
2021/10/05 03:25:44;;;;;;;0.15;0.15;;;14.60;99.90;;;;;;5030571;28;20492;-77
2021/10/05 03:28:10;;;;;;;0.65;0.65;;;14.60;99.90;;;;;;5028872;28;20037;-77
2021/10/05 03:30:36;;;;;;;0.20;0.20;;;14.60;99.90;;;;;;5024180;28;20032;-77
2021/10/05 03:33:01;;;;;;;0.25;0.25;;;14.60;99.90;;;;;;5034718;28;20037;-77
2021/10/05 03:35:27;;;;;;;0.47;0.45;;;14.60;99.90;;;;;;5035242;28;20021;-77
2021/10/05 03:37:53;;;;;;;1.23;0.68;;;14.60;99.90;;;;;;5024197;28;20546;-77
2021/10/05 03:40:18;;;;;;;0.13;0.13;;;14.60;99.90;;;;;;5037220;28;20495;-77
2021/10/05 03:42:44;;;;;;;0.28;0.28;;;14.60;99.90;;;;;;5032700;28;20028;-77
2021/10/05 03:45:10;;;;;;;0.15;0.15;;;14.60;99.90;;;;;;5044462;28;20162;-76
2021/10/05 03:47:36;;;;;;;0.73;0.50;;;14.60;99.90;;;;;;5026058;28;20475;-76
2021/10/05 03:50:07;;;;;;;0.40;0.40;;;14.50;99.90;;;;;;5036316;28;20037;-77
2021/10/05 03:52:33;;;;;;;0.40;0.40;;;14.60;99.90;;;;;;5037575;28;20378;-77
2021/10/05 03:54:58;;;;;;;4.75;1.17;;;14.50;99.90;;;;;;5031976;28;20037;-77
2021/10/05 03:57:24;;;;;;;3.40;1.13;;;14.50;99.90;;;;;;5033965;28;20026;-78
2021/10/05 03:59:49;;;;;;;0.38;0.38;;;14.50;99.90;;;;;;5029496;28;20042;-77
2021/10/05 04:02:15;;;;;;;0.20;0.20;;;14.50;99.90;;;;;;5028592;28;20468;-77
2021/10/05 04:04:40;;;;;;;0.10;0.10;;;14.50;99.90;;;;;;5022902;28;20021;-77
2021/10/05 04:07:06;;;;;;;0.65;0.55;;;14.50;99.90;;;;;;5037640;28;20079;-77
2021/10/05 04:09:32;;;;;;;2.08;0.52;;;14.50;99.90;;;;;;5031897;28;20554;-77
2021/10/05 04:11:57;;;;;;;0.25;0.25;;;14.50;99.90;;;;;;5024931;28;20033;-75
2021/10/05 04:14:23;;;;;;;0.00;0.00;;;14.50;99.90;;;;;;5031743;28;20037;-75
2021/10/05 04:16:48;;;;;;;0.10;0.10;;;14.50;99.90;;;;;;5034860;28;20061;-75
2021/10/05 04:19:15;;;;;;;0.60;0.50;;;14.60;99.90;;;;;;5038855;28;20051;-75
2021/10/05 04:21:40;;;;;;;2.05;1.13;;;14.50;99.90;;;;;;5040617;28;20506;-76
2021/10/05 04:24:06;;;;;;;0.00;0.00;;;14.50;99.90;;;;;;5030034;28;20128;-71
2021/10/05 04:26:31;;;;;;;0.00;0.00;;;14.50;99.90;;;;;;5034743;28;20606;-75
2021/10/05 04:28:57;;;;;;;0.00;0.00;;;14.50;99.90;;;;;;5037980;28;20384;-75
2021/10/05 04:31:22;;;;;;;0.25;0.25;;;14.50;99.90;;;;;;5032675;28;20041;-75
2021/10/05 04:33:48;;;;;;;3.40;0.93;;;14.50;99.90;;;;;;5019641;28;20039;-75
2021/10/05 04:36:13;;;;;;;0.52;0.47;;;14.50;99.90;;;;;;5023443;28;20415;-76
2021/10/05 04:38:39;;;;;;;0.20;0.20;;;14.50;99.90;;;;;;5026316;28;20037;-73
2021/10/05 04:41:05;;;;;;;0.00;0.00;;;14.50;99.90;;;;;;5034489;28;20025;-72
2021/10/05 04:43:30;;;;;;;0.52;0.10;;;14.50;99.90;;;;;;5021107;28;20045;-72
2021/10/05 04:45:56;;;;;;;1.10;0.20;;;14.50;99.90;;;;;;5026410;28;20461;-72
2021/10/05 04:48:21;;;;;;;0.75;0.57;;;14.50;99.90;;;;;;5024289;28;20032;-71
2021/10/05 04:50:47;;;;;;;0.90;0.85;;;14.50;99.90;;;;;;5037219;28;20037;-72
2021/10/05 04:53:15;;;;;;;0.10;0.10;;;14.50;99.90;;;;;;5029109;28;20052;-71
2021/10/05 04:55:44;;;;;;;0.10;0.10;;;14.50;99.90;;;;;;5032220;28;20061;-72
2021/10/05 04:58:11;;;;;;;0.28;0.28;;;14.50;99.90;;;;;;5036898;28;20522;-72
2021/10/05 05:00:37;;;;;;;0.40;0.40;;;14.50;99.90;;;;;;5036709;28;20036;-74
2021/10/05 05:03:02;;;;;;;0.10;0.10;;;14.50;99.90;;;;;;5032336;28;20051;-73
2021/10/05 05:05:28;;;;;;;0.08;0.08;;;14.50;99.90;;;;;;5039812;28;20021;-75
2021/10/05 05:07:58;;;;;;;0.00;0.00;;;14.50;99.90;;;;;;5036093;28;20053;-75
2021/10/05 05:10:24;;;;;;;0.20;0.20;;;14.50;99.90;;;;;;5033020;28;20026;-72
2021/10/05 05:12:49;;;;;;;0.35;0.30;;;14.50;99.90;;;;;;5029458;28;20029;-74
2021/10/05 05:15:15;;;;;;;0.10;0.10;;;14.50;99.90;;;;;;5041699;28;20474;-73
2021/10/05 05:17:41;;;;;;;0.20;0.10;;;14.50;99.90;;;;;;5033879;28;20025;-73
2021/10/05 05:20:07;;;;;;;0.20;0.20;;;14.50;99.90;;;;;;5031604;28;20525;-72
2021/10/05 05:22:32;;;;;;;0.22;0.22;;;14.50;99.90;;;;;;5030411;28;20041;-70
2021/10/05 05:25:01;;;;;;;0.20;0.20;;;14.50;99.90;;;;;;5033214;28;20037;-70
2021/10/05 05:27:26;;;;;;;0.10;0.10;;;14.50;99.90;;;;;;5037436;28;20021;-71
2021/10/05 05:30:14;;;;;;;4.20;0.43;;;14.50;99.90;;;;;;5048468;28;20084;-70
2021/10/05 05:32:40;;;;;;;0.10;0.10;;;14.50;99.90;;;;;;5037547;28;20062;-71
2021/10/05 05:35:06;;;;;;;1.30;0.60;;;14.50;99.90;;;;;;5037826;28;20029;-71
2021/10/05 05:37:31;;;;;;;1.65;0.20;;;14.50;99.90;;;;;;5041176;28;20082;-71
2021/10/05 05:39:57;;;;;;;0.00;0.00;;;14.50;99.90;;;;;;5030241;28;20422;-71
2021/10/05 05:42:23;;;;;;;4.65;0.57;;;14.50;99.90;;;;;;5026289;28;20052;-71
2021/10/05 05:44:50;;;;;;;0.60;0.40;;;14.50;99.90;;;;;;5028911;28;20036;-71
2021/10/05 05:47:16;;;;;;;0.65;0.65;;;14.40;99.90;;;;;;5035150;28;20029;-81
2021/10/05 05:49:42;;;;;;;0.08;0.08;;;14.40;99.90;;;;;;5032201;28;20032;-73
2021/10/05 05:52:07;;;;;;;0.22;0.22;;;14.40;99.90;;;;;;5045443;28;20104;-72
2021/10/05 05:54:33;;;;;;;0.40;0.40;;;14.40;99.90;;;;;;5025108;28;20025;-72
2021/10/05 05:56:59;;;;;;;0.08;0.08;;;14.40;99.90;;;;;;5034193;28;20017;-73
2021/10/05 05:59:24;;;;;;;0.15;0.15;;;14.40;99.90;;;;;;5031130;28;20426;-72
2021/10/05 06:01:50;;;;;;;0.15;0.15;;;14.40;99.90;;;;;;5035449;28;20030;-72
2021/10/05 06:04:15;;;;;;;0.47;0.40;;;14.40;99.90;;;;;;5032893;28;20610;-73
2021/10/05 06:06:41;;;;;;;0.35;0.35;;;14.40;99.90;;;;;;5035018;28;20020;-72
2021/10/05 06:09:06;;;;;;;1.17;0.57;;;14.40;99.90;;;;;;5037806;28;20024;-73
2021/10/05 06:11:34;;;;;;;0.47;0.30;;;14.40;99.90;;;;;;5046419;28;20159;-73
2021/10/05 06:14:00;;;;;;;0.10;0.10;;;14.40;99.90;;;;;;5026004;28;20120;-73
2021/10/05 06:16:25;;;;;;;3.70;0.90;;;14.40;99.90;;;;;;5037279;28;20112;-73
2021/10/05 06:18:51;;;;;;;0.30;0.30;;;14.40;99.90;;;;;;5027447;28;20037;-73
2021/10/05 06:21:16;;;;;;;0.40;0.40;;;14.40;99.90;;;;;;5038537;28;20063;-73
2021/10/05 06:23:42;;;;;;;0.50;0.50;;;14.40;99.90;;;;;;5046226;28;20029;-73
2021/10/05 06:26:08;;;;;;;0.38;0.38;;;14.50;99.90;;;;;;5044819;28;20529;-73
2021/10/05 06:28:33;;;;;;;0.20;0.20;;;14.50;99.90;;;;;;5040148;28;20041;-72
2021/10/05 06:31:01;;;;;;;0.03;0.03;;;14.40;99.90;;;;;;5044421;28;20122;-72
2021/10/05 06:33:26;;;;;;;0.35;0.35;;;14.50;99.90;;;;;;5024417;28;20423;-73
2021/10/05 06:35:52;;;;;;;0.13;0.10;;;14.50;99.90;;;;;;5022547;28;20191;-73
2021/10/05 06:38:17;;;;;;;0.52;0.45;;;14.50;99.90;;;;;;5041437;28;20112;-72
2021/10/05 06:40:44;;;;;;;0.47;0.38;;;14.50;99.90;;;;;;5028968;28;20377;-72
2021/10/05 06:43:10;;;;;;;0.30;0.30;;;14.50;99.90;;;;;;5038001;28;20086;-73
2021/10/05 06:45:36;;;;;;;0.20;0.20;;;14.50;99.90;;;;;;5028297;28;20028;-73
2021/10/05 06:48:02;;;;;;;3.95;1.20;;;14.60;99.90;;;;;;5026937;28;20029;-73
2021/10/05 06:50:30;;;;;;;1.10;0.90;;;14.60;99.90;;;;;;5036752;28;20029;-73
2021/10/05 06:52:56;;;;;;;0.10;0.10;;;14.60;99.90;;;;;;5041043;28;20439;-73
2021/10/05 06:55:22;;;;;;;0.25;0.25;;;14.70;99.90;;;;;;5045707;28;20013;-73
2021/10/05 06:57:47;;;;;;;0.50;0.40;;;14.70;99.90;;;;;;5032572;28;20080;-72
2021/10/05 07:00:15;;;;;;;0.88;0.60;;;14.70;99.90;;;;;;5034556;28;20502;-73
2021/10/05 07:02:47;;;;;;;0.05;0.05;;;14.80;99.90;;;;;;5031189;28;20029;-72
2021/10/05 07:05:14;;;;;;;0.10;0.10;;;14.80;99.90;;;;;;5036060;28;20021;-72
2021/10/05 07:07:42;;;;;;;0.90;0.40;;;14.80;99.90;;;;;;5038603;28;20029;-72
2021/10/05 07:10:09;;;;;;;0.32;0.32;;;14.80;99.90;;;;;;5035630;28;20021;-72
2021/10/05 07:12:35;;;;;;;0.57;0.57;;;14.90;99.90;;;;;;5040284;28;20035;-72
2021/10/05 07:15:02;;;;;;;0.28;0.28;;;14.90;99.90;;;;;;5035448;28;20025;-72
2021/10/05 07:17:28;;;;;;;0.50;0.50;;;15.00;99.90;;;;;;5040140;28;20025;-72
2021/10/05 07:19:53;;;;;;;0.30;0.30;;;15.00;99.90;;;;;;5040623;28;20060;-72
2021/10/05 07:22:19;;;;;;;0.70;0.60;;;15.00;99.90;;;;;;5039805;28;20029;-73
2021/10/05 07:24:44;;;;;;;0.22;0.22;;;15.00;99.90;;;;;;5040059;28;20044;-72
2021/10/05 07:27:10;;;;;;;0.47;0.47;;;15.00;99.90;;;;;;5035650;28;20025;-73
2021/10/05 07:29:36;;;;;;;2.03;1.33;;;15.10;99.90;;;;;;5035248;28;20104;-72
2021/10/05 07:32:01;;;;;;;1.23;0.70;;;15.10;99.90;;;;;;5035627;28;20030;-73
2021/10/05 07:34:27;;;;;;;0.73;0.63;;;15.10;99.90;;;;;;5045264;28;20501;-73
2021/10/05 07:36:52;;;;;;;0.13;0.13;;;15.10;99.90;;;;;;5037492;28;20033;-73
2021/10/05 07:39:19;;;;;;;1.27;0.40;;;15.10;99.90;;;;;;5042389;28;20112;-72
2021/10/05 07:41:44;;;;;;;1.63;0.60;;;15.10;99.90;;;;;;5044223;28;20039;-73
2021/10/05 07:44:12;;;;;;;0.80;0.60;;;15.10;99.90;;;;;;5038852;28;20021;-72
2021/10/05 07:46:38;;;;;;;0.82;0.80;;;15.10;99.90;;;;;;5044679;28;20506;-73
2021/10/05 07:49:05;;;;;;;0.47;0.30;;;15.10;99.90;;;;;;5042102;28;20475;-72
2021/10/05 07:51:31;;;;;;;2.53;0.32;;;15.10;99.90;;;;;;5041671;28;20029;-72
2021/10/05 07:53:56;;;;;;;0.52;0.47;;;15.10;99.90;;;;;;5042743;28;20036;-73
2021/10/05 07:56:22;;;;;;;0.40;0.40;;;15.10;99.90;;;;;;5039088;28;20024;-73
2021/10/05 07:58:47;;;;;;;4.38;0.65;;;15.10;99.90;;;;;;5027295;28;20025;-72
2021/10/05 08:01:13;;;;;;;1.45;0.63;;;15.10;99.90;;;;;;5039717;28;20386;-72
2021/10/05 08:03:38;;;;;;;0.90;0.77;;;15.10;99.90;;;;;;5027344;28;20124;-72
2021/10/05 08:06:04;;;;;;;0.98;0.98;;;15.10;99.90;;;;;;5042784;28;20082;-73
2021/10/05 08:08:29;;;;;;;0.88;0.73;;;15.10;99.90;;;;;;5044884;28;20017;-73
2021/10/05 08:10:55;;;;;;;1.00;0.85;;;15.10;99.90;;;;;;5043812;28;20033;-73
2021/10/05 08:13:20;;;;;;;2.28;1.52;;;15.10;99.90;;;;;;5026464;28;20149;-73
2021/10/05 08:15:46;;;;;;;0.85;0.85;;;15.10;99.90;;;;;;5044585;28;20025;-73
2021/10/05 08:18:12;;;;;;;5.93;1.65;;;15.10;99.90;;;;;;5030813;28;20029;-72
2021/10/05 08:20:39;;;;;;;1.90;0.30;;;15.10;99.90;;;;;;5032237;28;20106;-72
2021/10/05 08:23:05;;;;;;;1.90;0.80;;;15.10;99.90;;;;;;5030492;28;20037;-72
2021/10/05 08:25:30;;;;;;;0.52;0.52;;;15.10;99.90;;;;;;5040710;28;20033;-73
2021/10/05 08:27:56;;;;;;;1.90;1.17;;;15.20;99.90;;;;;;5031722;28;20083;-73
2021/10/05 08:30:21;;;;;;;0.70;0.68;;;15.20;99.90;;;;;;5035212;28;20055;-72
2021/10/05 08:32:47;;;;;;;0.95;0.75;;;15.20;99.90;;;;;;5039040;28;20116;-73
2021/10/05 08:35:16;;;;;;;1.70;1.42;;;15.30;99.90;;;;;;5031627;28;20025;-73
2021/10/05 08:37:41;;;;;;;1.17;0.77;;;15.30;99.90;;;;;;5033270;28;20025;-72
2021/10/05 08:40:10;;;;;;;0.52;0.52;;;15.30;99.90;;;;;;5042511;28;20098;-72
2021/10/05 08:42:35;;;;;;;3.13;1.05;;;15.20;99.90;;;;;;5042886;28;20032;-72
2021/10/05 08:45:05;;;;;;;0.90;0.90;;;15.20;99.90;;;;;;5042393;28;20395;-72
2021/10/05 08:47:31;;;;;;;3.08;2.30;;;15.20;99.90;;;;;;5037755;28;20032;-72
2021/10/05 08:49:57;;;;;;;1.08;0.95;;;15.20;99.90;;;;;;5036068;28;20025;-73
2021/10/05 08:52:22;;;;;;;0.63;0.63;;;15.30;99.90;;;;;;5023509;28;20033;-72
2021/10/05 08:54:48;;;;;;;0.60;0.60;;;15.20;99.90;;;;;;5042276;28;20495;-72
2021/10/05 08:57:14;;;;;;;2.30;1.08;;;15.30;99.90;;;;;;5042463;28;20150;-72
2021/10/05 08:59:39;;;;;;;1.33;1.27;;;15.30;99.90;;;;;;5043667;28;20021;-72
2021/10/05 09:02:14;;;;;;;3.28;2.17;;;15.30;99.90;;;;;;5034567;28;20020;-73
2021/10/05 09:04:40;;;;;;;1.95;1.85;;;15.30;99.90;;;;;;5023083;28;20021;-72
2021/10/05 09:07:20;;;;;;;6.32;2.20;;;15.30;99.90;;;;;;5038054;28;20029;-72
2021/10/05 09:09:53;;;;;;;1.85;1.35;;;15.40;99.90;;;;;;5036597;28;20033;-72
2021/10/05 09:12:30;;;;;;;0.85;0.85;;;15.30;99.90;;;;;;5023950;28;20017;-72
2021/10/05 09:15:00;;;;;;;0.95;0.95;;;15.40;99.90;;;;;;5039545;28;20182;-73
2021/10/05 09:17:28;;;;;;;0.95;0.90;;;15.40;99.90;;;;;;5034733;28;20034;-72
2021/10/05 09:19:55;;;;;;;1.17;1.02;;;15.40;99.90;;;;;;5027783;28;20072;-73
2021/10/05 09:22:25;;;;;;;1.10;1.08;;;15.40;99.90;;;;;;5026985;28;20067;-73
2021/10/05 09:24:53;;;;;;;3.13;1.85;;;15.50;99.90;;;;;;5032396;28;20022;-72
2021/10/05 09:27:19;;;;;;;10.27;1.48;;;15.50;99.90;;;;;;5027206;28;20033;-72
2021/10/05 09:29:49;;;;;;;1.63;1.52;;;15.50;99.90;;;;;;5042273;28;20028;-73
2021/10/05 09:32:18;;;;;;;2.25;1.38;;;15.50;99.90;;;;;;5042548;28;20033;-73
2021/10/05 09:34:54;;;;;;;1.10;1.08;;;15.50;99.90;;;;;;5043674;28;20026;-73
2021/10/05 09:37:31;;;;;;;3.17;2.03;;;15.50;99.90;;;;;;5031122;28;20028;-72
2021/10/05 09:40:10;;;;;;;1.40;1.30;;;15.50;99.90;;;;;;5043364;28;20041;-73
2021/10/05 09:42:37;;;;;;;1.23;1.15;;;15.60;99.90;;;;;;5034750;28;20495;-72
2021/10/05 09:45:13;;;;;;;0.85;0.85;;;15.60;99.90;;;;;;5030928;28;20056;-72
2021/10/05 09:47:42;;;;;;;8.98;2.03;;;15.60;99.90;;;;;;5031417;28;20030;-72
2021/10/05 09:50:13;;;;;;;0.82;0.82;;;15.70;99.90;;;;;;5033929;28;20021;-72
2021/10/05 09:52:41;;;;;;;3.17;2.20;;;15.70;99.90;;;;;;5026103;28;20637;-72
2021/10/05 09:55:10;;;;;;;0.82;0.82;;;15.70;99.90;;;;;;5026159;28;20025;-72
2021/10/05 09:57:38;;;;;;;1.65;1.20;;;15.70;99.90;;;;;;5038980;28;20495;-72
2021/10/05 10:00:07;;;;;;;2.05;1.77;;;15.70;99.90;;;;;;5043684;28;20036;-72
2021/10/05 10:02:36;;;;;;;7.45;2.92;;;15.70;99.90;;;;;;5041720;28;20357;-72
2021/10/05 10:05:02;;;;;;;3.83;1.85;;;15.70;99.90;;;;;;5037497;28;20032;-70
2021/10/05 10:07:32;;;;;;;3.00;1.70;;;15.70;99.90;;;;;;5043308;28;20021;-70
2021/10/05 10:09:58;;;;;;;1.10;1.02;;;15.70;99.90;;;;;;5038338;28;20437;-71
2021/10/05 10:12:27;;;;;;;2.40;1.23;;;15.60;99.90;;;;;;5030975;28;20253;-71
2021/10/05 10:14:53;;;;;;;1.58;1.48;;;15.60;99.90;;;;;;5034771;28;20025;-71
2021/10/05 10:17:25;;;;;;;2.20;1.42;;;15.60;99.90;;;;;;5036475;28;20485;-71
2021/10/05 10:19:51;;;;;;;3.15;2.25;;;15.60;99.90;;;;;;5034436;28;20136;-71
2021/10/05 10:22:17;;;;;;;1.10;1.00;;;15.60;99.90;;;;;;5031370;28;20022;-71
2021/10/05 10:24:50;;;;;;;7.68;3.25;;;15.60;99.90;;;;;;5029958;28;20029;-71
2021/10/05 10:27:16;;;;;;;7.55;3.10;;;15.50;99.90;;;;;;5039723;28;20032;-72
2021/10/05 10:29:42;;;;;;;7.60;2.33;;;15.40;99.90;;;;;;5038777;28;20025;-71
2021/10/05 10:32:19;;;;;;;7.65;2.95;;;15.50;99.90;;;;;;5040859;28;20692;-71
2021/10/05 10:34:46;;;;;;;6.30;3.65;;;15.50;99.90;;;;;;5037629;28;20472;-71
2021/10/05 10:37:20;;;;;;;1.73;1.48;;;15.50;99.90;;;;;;5033132;28;20480;-72
2021/10/05 10:39:47;;;;;;;2.85;2.47;;;15.50;99.90;;;;;;5049703;28;20048;-71
2021/10/05 10:42:26;;;;;;;2.55;1.77;;;15.60;99.90;;;;;;5037030;28;20396;-71
2021/10/05 10:44:51;;;;;;;2.90;1.92;;;15.60;99.90;;;;;;5041646;28;20680;-70
2021/10/05 10:47:21;;;;;;;0.98;0.98;;;15.70;99.90;;;;;;5036334;28;20025;-70
2021/10/05 10:49:58;;;;;;;3.20;1.92;;;15.70;99.90;;;;;;5035234;28;20037;-70
2021/10/05 10:52:26;;;;;;;3.03;2.67;;;15.70;99.90;;;;;;5032172;28;20033;-70
2021/10/05 10:54:56;;;;;;;1.85;1.75;;;15.70;99.90;;;;;;5031247;28;20034;-71
2021/10/05 10:57:32;;;;;;;4.78;3.35;;;15.80;99.90;;;;;;5046763;28;20104;-71
2021/10/05 11:00:20;;;;;;;1.42;1.27;;;15.80;99.90;;;;;;5036152;28;20546;-70
2021/10/05 11:03:00;;;;;;;3.60;1.10;;;15.80;99.90;;;;;;5038754;28;20033;-71
2021/10/05 11:05:30;;;;;;;2.60;1.40;;;15.80;99.90;;;;;;5044739;28;20036;-71
2021/10/05 11:07:57;;;;;;;2.67;1.55;;;15.90;99.90;;;;;;5041735;28;20438;-70
2021/10/05 11:10:32;;;;;;;1.40;1.30;;;15.90;99.90;;;;;;5038827;28;20086;-70
2021/10/05 11:13:03;;;;;;;3.55;2.53;;;15.90;99.90;;;;;;5038792;28;20029;-71
2021/10/05 11:15:45;;;;;;;2.28;2.17;;;15.90;99.90;;;;;;5038830;28;20722;-71
2021/10/05 11:18:22;;;;;;;;;;;15.90;99.90;;;;;;5027369;28;20358;-70
2021/10/05 11:20:48;;;;;;;2.58;1.10;;;15.90;99.90;;;;;;5036948;28;20360;-71
2021/10/05 11:23:21;;;;;;;2.53;1.67;;;15.90;99.90;;;;;;5036622;28;20047;-70
2021/10/05 11:25:52;;;;;;;1.95;1.02;;;15.90;99.90;;;;;;5038468;28;20491;-71
2021/10/05 11:28:20;;;;;;;;;;;15.90;99.90;;;;;;5036117;28;20025;-71
2021/10/05 11:30:51;;;;;;;1.70;1.60;;;15.90;99.90;;;;;;5039092;28;20662;-71
2021/10/05 11:33:18;;;;;;;;;;;15.90;99.90;;;;;;5039726;28;20078;-70
2021/10/05 11:35:43;;;;;;;1.38;1.27;;;15.90;99.90;;;;;;5036342;28;19924;-70
2021/10/05 11:38:09;;;;;;;1.63;1.52;;;15.90;99.90;;;;;;5029992;28;20041;-70
2021/10/05 11:40:34;;;;;;;2.53;1.70;;;15.90;99.90;;;;;;5028849;28;20021;-71
2021/10/05 11:43:00;;;;;;;2.03;1.70;;;15.90;99.90;;;;;;5035406;28;20024;-70
2021/10/05 11:45:28;;;;;;;0.57;0.57;;;15.90;99.90;;;;;;5031858;28;20025;-71
2021/10/05 11:47:57;;;;;;;2.90;1.98;;;15.90;99.90;;;;;;5038005;28;20248;-70
2021/10/05 11:50:22;;;;;;;11.00;2.88;;;15.90;99.90;;;;;;5024535;28;20021;-70
2021/10/05 11:52:50;;;;;;;1.95;1.85;;;16.00;99.90;;;;;;5035138;28;20040;-71
2021/10/05 11:55:16;;;;;;;1.52;1.48;;;16.00;99.90;;;;;;5035360;28;20036;-71
2021/10/05 11:57:44;;;;;;;3.50;2.60;;;16.10;99.90;;;;;;5039410;28;20112;-70
2021/10/05 12:00:10;;;;;;;3.03;2.20;;;16.10;99.90;;;;;;5040184;28;20032;-71
2021/10/05 12:02:43;;;;;;;3.13;1.90;;;16.20;99.90;;;;;;5031172;28;20025;-71
2021/10/05 12:08:10;;;;;;;2.67;2.13;;;16.20;99.90;;;;;;5039266;28;20036;-70
2021/10/05 12:10:36;;;;;;;3.25;2.53;;;16.20;99.90;;;;;;5034273;28;20013;-71
2021/10/05 12:13:01;;;;;;;6.10;2.45;;;16.20;99.90;;;;;;5040014;28;20036;-71
2021/10/05 12:15:30;;;;;;;3.60;3.30;;;16.30;99.90;;;;;;5042224;28;20021;-70
2021/10/05 12:18:06;;;;;;;0.88;0.88;;;16.30;99.90;;;;;;5043884;28;20408;-70
2021/10/05 12:20:31;;;;;;;3.78;2.80;;;16.30;99.90;;;;;;5025275;28;20510;-72
2021/10/05 12:22:57;;;;;;;6.13;3.75;;;16.30;99.90;;;;;;5028382;28;20083;-71
2021/10/05 12:25:24;;;;;;;4.18;2.08;;;16.30;99.90;;;;;;5040768;28;20052;-71
2021/10/05 12:27:52;;;;;;;3.33;2.78;;;16.30;99.90;;;;;;5029568;28;20037;-71
2021/10/05 12:30:21;;;;;;;6.40;2.45;;;16.30;99.90;;;;;;5039074;28;20025;-72
2021/10/05 12:32:59;;;;;;;4.35;2.80;;;16.30;99.90;;;;;;5033094;28;20037;-73
2021/10/05 12:35:39;;;;;;;2.78;1.95;;;16.30;99.90;;;;;;5042776;28;20039;-72
2021/10/05 12:38:23;;;;;;;7.13;3.40;;;16.30;99.90;;;;;;5028476;28;20040;-73
2021/10/05 12:40:54;;;;;;;2.28;2.08;;;16.20;99.90;;;;;;5035624;28;20032;-72
2021/10/05 12:43:23;;;;;;;4.10;2.72;;;16.20;99.90;;;;;;5026537;28;20036;-73
2021/10/05 12:45:57;;;;;;;2.72;1.83;;;16.20;99.90;;;;;;5037119;28;20033;-72
2021/10/05 12:48:34;;;;;;;4.40;2.58;;;16.20;99.90;;;;;;5021257;28;20017;-72
2021/10/05 12:51:00;;;;;;;4.60;3.78;;;16.20;99.90;;;;;;5025667;28;20064;-72